createdAt,value
2019-02-14T00:03:38.965Z,2.90
2019-02-14T00:13:38.052Z,3.30
2019-02-14T00:18:40.340Z,3.40
2019-02-14T00:23:40.246Z,3.20
2019-02-14T00:36:09.203Z,2.80
2019-02-14T00:38:39.523Z,2.80
2019-02-14T00:41:09.867Z,2.90
2019-02-14T00:46:09.828Z,3.20
2019-02-14T00:53:45.355Z,3.40
2019-02-14T00:56:15.658Z,3.50
2019-02-14T00:58:46.015Z,3.40
2019-02-14T01:01:16.319Z,3.10
2019-02-14T01:03:46.662Z,3.00
2019-02-14T01:06:16.971Z,2.80
2019-02-14T01:08:47.346Z,2.90
2019-02-14T01:11:17.664Z,3.00
2019-02-14T01:13:47.991Z,3.00
2019-02-14T01:16:18.315Z,3.00
2019-02-14T01:18:48.674Z,2.80
2019-02-14T01:23:49.410Z,2.50
2019-02-14T01:26:20.191Z,2.40
2019-02-14T01:28:50.555Z,2.30
2019-02-14T01:36:20.051Z,4.40
2019-02-14T01:41:20.111Z,2.80
2019-02-14T01:48:49.703Z,2.60
2019-02-14T01:53:49.755Z,2.90
2019-02-14T01:58:49.722Z,2.90
2019-02-14T02:03:49.975Z,2.90
2019-02-14T02:11:20.063Z,3.10
2019-02-14T02:28:50.249Z,2.90
2019-02-14T02:36:19.916Z,3.40
2019-02-14T02:38:50.257Z,3.40
2019-02-14T02:43:50.143Z,3.30
2019-02-14T02:46:20.464Z,3.20
2019-02-14T02:48:50.834Z,3.00
2019-02-14T02:53:50.720Z,2.90
2019-02-14T02:56:21.753Z,2.60
2019-02-14T02:58:52.087Z,2.50
2019-02-14T03:01:22.406Z,2.40
2019-02-14T03:08:51.870Z,2.80
2019-02-14T03:13:51.788Z,2.40
2019-02-14T03:18:52.150Z,2.10
2019-02-14T03:21:22.516Z,2.10
2019-02-14T03:26:22.422Z,2.20
2019-02-14T03:31:22.356Z,2.00
2019-02-14T03:33:52.772Z,1.90
2019-02-14T03:36:23.096Z,2.10
2019-02-14T03:38:53.415Z,2.10
2019-02-14T03:43:53.326Z,2.00
2019-02-14T03:48:53.248Z,2.10
2019-02-14T03:53:53.156Z,2.00
2019-02-14T04:01:22.651Z,2.00
2019-02-14T04:08:53.963Z,2.20
2019-02-14T04:21:22.523Z,2.20
2019-02-14T04:23:52.820Z,2.40
2019-02-14T04:28:52.743Z,2.50
2019-02-14T04:33:52.639Z,2.20
2019-02-14T04:36:22.959Z,2.40
2019-02-14T04:38:53.295Z,2.30
2019-02-14T04:43:53.202Z,2.80
2019-02-14T04:48:53.089Z,2.70
2019-02-14T04:56:22.722Z,2.30
2019-02-14T04:58:53.043Z,2.50
2019-02-14T05:03:52.966Z,2.50
2019-02-14T05:06:23.268Z,2.70
2019-02-14T05:11:23.200Z,2.70
2019-02-14T05:13:53.533Z,2.40
2019-02-14T05:18:53.439Z,1.70
2019-02-14T05:23:53.382Z,1.90
2019-02-14T05:28:53.269Z,2.50
2019-02-14T05:33:53.182Z,2.30
2019-02-14T05:38:53.072Z,2.30
2019-02-14T05:43:52.967Z,2.10
2019-02-14T05:46:23.267Z,1.80
2019-02-14T05:48:53.599Z,1.60
2019-02-14T05:53:53.508Z,1.30
2019-02-14T06:08:52.037Z,1.80
2019-02-14T06:11:22.382Z,1.90
2019-02-14T06:13:52.747Z,2.10
2019-02-14T06:16:23.444Z,2.30
2019-02-14T06:18:53.805Z,2.40
2019-02-14T06:23:53.646Z,2.70
2019-02-14T06:28:53.551Z,2.80
2019-02-14T06:31:23.891Z,2.70
2019-02-14T06:41:23.032Z,2.60
2019-02-14T06:43:53.363Z,2.90
2019-02-14T06:46:23.707Z,3.00
2019-02-14T06:58:52.346Z,3.50
2019-02-14T07:01:22.650Z,3.20
2019-02-14T07:11:21.879Z,3.40
2019-02-14T07:16:21.792Z,3.60
2019-02-14T07:23:52.120Z,3.80
2019-02-14T07:28:52.083Z,3.80
2019-02-14T07:31:22.409Z,3.80
2019-02-14T07:38:51.899Z,4.30
2019-02-14T07:48:52.579Z,4.60
2019-02-14T07:56:22.088Z,4.90
2019-02-14T07:58:52.415Z,5.00
2019-02-14T08:01:22.756Z,5.20
2019-02-14T08:18:50.643Z,6.50
2019-02-14T08:23:50.588Z,6.50
2019-02-14T08:28:50.516Z,7.20
2019-02-14T08:33:51.196Z,8.50
2019-02-14T08:38:51.355Z,9.30
2019-02-14T08:43:51.219Z,9.20
2019-02-14T08:48:51.343Z,10.00
2019-02-14T09:03:50.143Z,10.50
2019-02-14T09:08:50.440Z,11.30
2019-02-14T09:13:50.394Z,13.20
2019-02-14T09:23:50.537Z,17.00
2019-02-14T09:33:49.934Z,14.20
2019-02-14T09:41:19.819Z,14.30
2019-02-14T09:43:50.156Z,14.60
2019-02-14T09:46:20.856Z,14.90
2019-02-14T09:56:19.991Z,14.50
2019-02-14T10:01:20.112Z,18.10
2019-02-14T10:08:49.767Z,18.70
2019-02-14T10:11:20.770Z,19.70
2019-02-14T10:13:51.127Z,20.70
2019-02-14T10:16:21.464Z,21.00
2019-02-14T10:21:21.427Z,19.30
2019-02-14T10:31:20.712Z,19.20
2019-02-14T10:41:20.514Z,18.70
2019-02-14T10:48:50.044Z,19.90
2019-02-14T10:51:20.387Z,18.90
2019-02-14T10:56:20.488Z,20.10
2019-02-14T11:08:49.255Z,20.10
2019-02-14T11:11:20.188Z,19.40
2019-02-14T11:16:20.639Z,18.80
2019-02-14T11:21:20.590Z,19.40
2019-02-14T11:31:21.135Z,21.20
2019-02-14T11:41:21.692Z,20.80
2019-02-14T11:43:52.345Z,21.70
2019-02-14T11:56:21.171Z,20.60
2019-02-14T12:11:22.353Z,21.70
2019-02-14T12:16:22.231Z,20.60
2019-02-14T12:21:22.159Z,20.10
2019-02-14T12:36:21.279Z,19.40
2019-02-14T12:41:21.502Z,20.20
2019-02-14T12:43:51.846Z,20.50
2019-02-14T12:51:21.575Z,20.80
2019-02-14T12:53:51.904Z,21.50
2019-02-14T12:56:22.346Z,21.40
2019-02-14T13:01:22.358Z,20.60
2019-02-14T13:11:21.629Z,20.90
2019-02-14T13:21:21.165Z,20.30
2019-02-14T13:23:51.691Z,21.30
2019-02-14T13:26:22.097Z,21.30
2019-02-14T13:28:52.435Z,19.60
2019-02-14T13:33:53.998Z,21.30
2019-02-14T13:36:24.382Z,20.90
2019-02-14T13:41:30.894Z,19.90
2019-02-14T13:46:25.993Z,20.30
2019-02-14T13:48:56.327Z,20.90
2019-02-14T13:53:56.340Z,19.70
2019-02-14T13:56:26.716Z,19.80
2019-02-14T13:58:57.128Z,19.30
2019-02-14T14:01:27.487Z,18.60
2019-02-14T14:03:57.948Z,19.70
2019-02-14T14:06:28.371Z,20.10
2019-02-14T14:08:58.755Z,20.00
2019-02-14T14:19:05.977Z,18.80
2019-02-14T14:21:29.964Z,19.50
2019-02-14T14:26:29.925Z,20.00
2019-02-14T14:31:29.915Z,19.70
2019-02-14T14:38:59.918Z,17.90
2019-02-14T14:41:30.262Z,17.40
2019-02-14T14:44:19.308Z,18.00
2019-02-14T14:59:39.719Z,17.80
2019-02-14T15:02:10.105Z,16.90
2019-02-14T15:09:40.091Z,17.60
2019-02-14T15:12:10.459Z,18.10
2019-02-14T15:17:10.384Z,17.50
2019-02-14T15:24:39.944Z,15.20
2019-02-14T15:29:40.009Z,15.50
2019-02-14T15:32:10.395Z,15.70
2019-02-14T15:42:09.668Z,14.40
2019-02-14T15:44:40.041Z,13.70
2019-02-14T15:52:09.684Z,11.90
2019-02-14T15:57:09.683Z,10.90
2019-02-14T15:59:41.177Z,10.30
2019-02-14T16:02:12.109Z,9.90
2019-02-14T16:04:42.403Z,9.70
2019-02-14T16:12:13.637Z,9.20
2019-02-14T16:14:44.835Z,9.00
2019-02-14T16:17:15.231Z,8.90
2019-02-14T16:19:45.559Z,8.90
2019-02-14T16:24:47.180Z,8.70
2019-02-14T16:37:17.568Z,8.20
2019-02-14T16:39:51.976Z,8.10
2019-02-14T16:42:19.832Z,8.00
2019-02-14T16:52:20.473Z,7.70
2019-02-14T16:59:50.303Z,7.50
2019-02-14T17:02:20.837Z,7.50
2019-02-14T17:07:20.796Z,7.20
2019-02-14T17:12:20.909Z,6.80
2019-02-14T17:17:27.659Z,6.80
2019-02-14T17:27:21.655Z,6.20
2019-02-14T17:29:52.012Z,6.20
2019-02-14T17:34:51.973Z,6.20
2019-02-14T17:52:20.527Z,5.70
2019-02-14T17:59:50.040Z,5.70
2019-02-14T18:07:20.440Z,5.50
2019-02-14T18:17:20.393Z,5.30
2019-02-14T18:22:20.504Z,5.30
2019-02-14T18:37:19.212Z,5.20
2019-02-14T18:39:49.539Z,5.00
2019-02-14T18:42:20.388Z,5.10
2019-02-14T18:44:50.757Z,5.00
2019-02-14T18:47:21.135Z,4.80
2019-02-14T18:52:21.151Z,5.00
2019-02-14T19:02:20.300Z,4.60
2019-02-14T19:04:50.632Z,4.50
2019-02-14T19:07:20.993Z,4.50
2019-02-14T19:12:20.998Z,4.40
2019-02-14T19:19:50.518Z,4.10
2019-02-14T19:37:19.472Z,4.00
2019-02-14T19:42:19.994Z,4.30
2019-02-14T19:44:50.781Z,4.20
2019-02-14T19:47:21.117Z,4.00
2019-02-14T19:49:51.675Z,4.00
2019-02-14T19:59:51.316Z,4.10
2019-02-14T20:04:51.224Z,4.00
2019-02-14T20:22:20.268Z,4.10
2019-02-14T20:24:50.590Z,4.20
2019-02-14T20:27:20.948Z,4.20
2019-02-14T20:32:20.850Z,4.40
2019-02-14T20:37:20.863Z,4.40
2019-02-14T20:42:20.845Z,4.50
2019-02-14T20:47:20.712Z,4.20
2019-02-14T20:49:51.034Z,4.30
2019-02-14T20:52:21.377Z,4.50
2019-02-14T20:59:50.905Z,4.20
2019-02-14T21:02:21.313Z,4.30
2019-02-14T21:04:51.661Z,4.30
2019-02-14T21:12:21.931Z,4.10
2019-02-14T21:24:51.564Z,4.30
2019-02-14T21:27:21.970Z,4.10
2019-02-14T21:37:22.056Z,4.10
2019-02-14T21:50:11.711Z,4.30
2019-02-14T21:55:11.991Z,4.60
2019-02-14T22:15:15.378Z,4.80
2019-02-14T22:22:44.759Z,4.00
2019-02-14T22:25:15.126Z,4.20
2019-02-14T22:27:45.439Z,4.10
2019-02-14T22:32:46.519Z,4.00
2019-02-14T22:35:16.937Z,4.00
2019-02-14T22:37:47.278Z,4.10
2019-02-14T22:42:47.830Z,3.60
2019-02-14T22:45:18.348Z,3.70
2019-02-14T22:52:47.921Z,3.90
2019-02-14T22:55:18.220Z,3.80
2019-02-14T22:57:48.543Z,3.50
2019-02-14T23:00:38.347Z,3.60
2019-02-14T23:03:08.692Z,3.50
2019-02-14T23:05:39.003Z,3.60
2019-02-14T23:08:09.407Z,3.60
2019-02-14T23:10:39.739Z,3.60
2019-02-14T23:13:10.095Z,3.60
2019-02-14T23:18:10.020Z,3.50
2019-02-14T23:20:40.326Z,3.60
2019-02-14T23:23:10.695Z,3.40
2019-02-14T23:25:41.029Z,3.20
2019-02-14T23:28:11.374Z,3.20
2019-02-14T23:30:41.695Z,3.40
2019-02-14T23:33:12.043Z,3.50
2019-02-14T23:35:42.358Z,3.50
2019-02-14T23:38:12.681Z,3.60
2019-02-14T23:40:42.971Z,3.50
2019-02-14T23:43:13.307Z,3.50
2019-02-14T23:45:43.630Z,3.50
2019-02-14T23:48:13.955Z,3.30
2019-02-14T23:50:44.274Z,3.20
2019-02-14T23:53:14.638Z,3.30
2019-02-14T23:55:44.967Z,3.40
2019-02-14T23:58:15.292Z,3.50
